createdAt,value
2023-02-08T00:01:23.893Z,103092.31
2023-02-08T00:03:52.275Z,103088.75
2023-02-08T00:06:20.881Z,103083.38
2023-02-08T00:08:49.300Z,103089.16
2023-02-08T00:11:17.151Z,103088.03
2023-02-08T00:13:44.808Z,103088.97
2023-02-08T00:16:14.517Z,103082.81
2023-02-08T00:18:42.654Z,103091.50
2023-02-08T00:21:13.481Z,103098.41
2023-02-08T00:23:42.796Z,103101.06
2023-02-08T00:26:11.279Z,103100.13
2023-02-08T00:28:40.413Z,103098.34
2023-02-08T00:31:08.511Z,103096.53
2023-02-08T00:33:36.745Z,103101.72
2023-02-08T00:36:06.833Z,103098.13
2023-02-08T00:38:34.850Z,103099.00
2023-02-08T00:41:04.047Z,103102.34
2023-02-08T00:43:31.956Z,103106.78
2023-02-08T00:46:01.118Z,103118.00
2023-02-08T00:48:29.689Z,103132.34
2023-02-08T00:51:02.782Z,103129.25
2023-02-08T00:53:31.704Z,103129.25
2023-02-08T00:56:00.417Z,103121.44
2023-02-08T00:58:28.415Z,103118.75
2023-02-08T01:00:56.923Z,103110.03
2023-02-08T01:03:25.282Z,103124.69
2023-02-08T01:05:54.115Z,103130.78
2023-02-08T01:08:22.139Z,103122.31
2023-02-08T01:10:50.330Z,103136.22
2023-02-08T01:13:18.877Z,103128.53
2023-02-08T01:15:47.038Z,103129.25
2023-02-08T01:18:15.280Z,103131.94
2023-02-08T01:20:43.740Z,103132.13
2023-02-08T01:23:11.266Z,103139.97
2023-02-08T01:25:40.386Z,103133.22
2023-02-08T01:28:08.850Z,103128.16
2023-02-08T01:30:38.016Z,103134.38
2023-02-08T01:33:06.333Z,103137.09
2023-02-08T01:35:34.486Z,103141.47
2023-02-08T01:38:02.109Z,103145.72
2023-02-08T01:40:29.678Z,103139.78
2023-02-08T01:42:58.129Z,103147.50
2023-02-08T01:45:30.826Z,103139.84
2023-02-08T01:48:09.146Z,103144.19
2023-02-08T01:51:04.669Z,103141.63
2023-02-08T01:53:34.778Z,103137.41
2023-02-08T01:56:07.893Z,103142.63
2023-02-08T01:58:39.960Z,103138.34
2023-02-08T02:01:09.246Z,103136.63
2023-02-08T02:03:36.851Z,103134.03
2023-02-08T02:06:15.965Z,103134.13
2023-02-08T02:08:58.017Z,103135.84
2023-02-08T02:11:25.998Z,103130.72
2023-02-08T02:13:55.051Z,103134.16
2023-02-08T02:16:23.301Z,103133.34
2023-02-08T02:18:52.735Z,103137.56
2023-02-08T02:21:41.835Z,103140.13
2023-02-08T02:24:19.974Z,103138.34
2023-02-08T02:27:16.066Z,103133.19
2023-02-08T02:30:02.422Z,103133.22
2023-02-08T02:32:35.126Z,103141.81
2023-02-08T02:35:06.571Z,103128.03
2023-02-08T02:37:54.295Z,103127.13
2023-02-08T02:40:34.061Z,103124.47
2023-02-08T02:43:35.801Z,103131.47
2023-02-08T02:46:12.910Z,103116.88
2023-02-08T02:48:53.283Z,103116.03
2023-02-08T02:51:28.226Z,103101.44
2023-02-08T02:54:06.807Z,103114.34
2023-02-08T02:56:43.006Z,103103.97
2023-02-08T02:59:12.707Z,103112.66
2023-02-08T03:01:43.442Z,103108.25
2023-02-08T03:04:38.773Z,103114.31
2023-02-08T03:07:19.031Z,103115.19
2023-02-08T03:10:30.788Z,103114.34
2023-02-08T03:13:26.595Z,103110.94
2023-02-08T03:15:54.638Z,103117.03
2023-02-08T03:18:45.045Z,103119.59
2023-02-08T03:21:30.950Z,103124.78
2023-02-08T03:24:04.440Z,103136.81
2023-02-08T03:26:40.324Z,103130.56
2023-02-08T03:29:25.796Z,103137.47
2023-02-08T03:32:25.197Z,103137.28
2023-02-08T03:35:06.263Z,103140.75
2023-02-08T03:37:47.047Z,103138.25
2023-02-08T03:40:46.875Z,103143.38
2023-02-08T03:44:06.841Z,103136.38
2023-02-08T03:46:40.755Z,103146.66
2023-02-08T03:49:15.007Z,103149.25
2023-02-08T03:51:44.373Z,103140.56
2023-02-08T03:54:19.717Z,103148.31
2023-02-08T03:56:50.318Z,103137.84
2023-02-08T03:59:24.658Z,103144.78
2023-02-08T04:01:58.901Z,103130.91
2023-02-08T04:04:32.476Z,103130.00
2023-02-08T04:07:00.767Z,103129.09
2023-02-08T04:09:28.382Z,103130.91
2023-02-08T04:11:56.526Z,103124.16
2023-02-08T04:14:24.428Z,103128.56
2023-02-08T04:16:52.869Z,103132.91
2023-02-08T04:19:21.124Z,103136.31
2023-02-08T04:21:49.403Z,103139.06
2023-02-08T04:24:18.353Z,103138.13
2023-02-08T04:26:47.128Z,103128.66
2023-02-08T04:29:14.866Z,103132.09
2023-02-08T04:31:43.100Z,103129.41
2023-02-08T04:34:10.919Z,103132.75
2023-02-08T04:36:39.123Z,103125.72
2023-02-08T04:39:06.991Z,103129.03
2023-02-08T04:41:35.359Z,103128.16
2023-02-08T04:44:02.945Z,103136.72
2023-02-08T04:46:30.717Z,103133.22
2023-02-08T04:48:59.157Z,103124.59
2023-02-08T04:51:26.841Z,103128.88
2023-02-08T04:53:55.367Z,103132.34
2023-02-08T04:56:23.256Z,103129.63
2023-02-08T04:58:50.904Z,103134.81
2023-02-08T05:01:18.695Z,103132.22
2023-02-08T05:03:47.530Z,103132.13
2023-02-08T05:06:15.991Z,103137.47
2023-02-08T05:08:44.435Z,103144.41
2023-02-08T05:11:12.504Z,103144.28
2023-02-08T05:13:40.767Z,103133.06
2023-02-08T05:16:08.549Z,103132.09
2023-02-08T05:18:36.265Z,103126.81
2023-02-08T05:21:04.066Z,103125.94
2023-02-08T05:23:32.232Z,103123.31
2023-02-08T05:25:59.989Z,103127.50
2023-02-08T05:28:27.633Z,103133.47
2023-02-08T05:30:55.730Z,103140.31
2023-02-08T05:33:23.758Z,103134.41
2023-02-08T05:35:51.683Z,103146.34
2023-02-08T05:38:19.209Z,103149.72
2023-02-08T05:40:47.224Z,103142.75
2023-02-08T05:43:15.239Z,103140.41
2023-02-08T05:45:42.878Z,103141.22
2023-02-08T05:48:10.824Z,103139.38
2023-02-08T05:50:38.650Z,103143.59
2023-02-08T05:53:10.288Z,103143.50
2023-02-08T05:55:38.475Z,103136.44
2023-02-08T05:58:06.474Z,103139.91
2023-02-08T06:00:34.520Z,103145.09
2023-02-08T06:03:02.072Z,103152.06
2023-02-08T06:05:29.729Z,103154.34
2023-02-08T06:07:57.663Z,103155.56
2023-02-08T06:10:25.597Z,103154.63
2023-02-08T06:12:53.690Z,103153.59
2023-02-08T06:15:21.968Z,103149.44
2023-02-08T06:17:49.594Z,103147.72
2023-02-08T06:20:17.494Z,103142.72
2023-02-08T06:22:46.614Z,103142.72
2023-02-08T06:25:14.878Z,103155.75
2023-02-08T06:27:43.079Z,103152.00
2023-02-08T06:30:11.874Z,103151.00
2023-02-08T06:32:39.673Z,103147.56
2023-02-08T06:35:07.943Z,103155.38
2023-02-08T06:37:36.488Z,103159.88
2023-02-08T06:40:06.244Z,103154.03
2023-02-08T06:42:35.072Z,103148.88
2023-02-08T06:45:03.242Z,103156.28
2023-02-08T06:47:31.676Z,103152.06
2023-02-08T06:50:00.133Z,103147.78
2023-02-08T06:52:27.802Z,103145.06
2023-02-08T06:54:56.125Z,103151.97
2023-02-08T06:57:24.235Z,103154.53
2023-02-08T06:59:51.992Z,103158.09
2023-02-08T07:02:21.624Z,103159.97
2023-02-08T07:04:51.944Z,103163.63
2023-02-08T07:07:19.687Z,103158.50
2023-02-08T07:09:47.596Z,103160.44
2023-02-08T07:12:19.312Z,103158.72
2023-02-08T07:14:47.896Z,103166.78
2023-02-08T07:17:15.688Z,103162.22
2023-02-08T07:19:45.995Z,103166.72
2023-02-08T07:22:13.867Z,103164.34
2023-02-08T07:24:42.872Z,103154.97
2023-02-08T07:27:13.880Z,103158.59
2023-02-08T07:29:41.981Z,103163.84
2023-02-08T07:32:11.770Z,103164.78
2023-02-08T07:34:40.810Z,103159.78
2023-02-08T07:37:08.547Z,103166.03
2023-02-08T07:39:36.730Z,103153.97
2023-02-08T07:42:06.856Z,103164.41
2023-02-08T07:44:41.899Z,103149.13
2023-02-08T07:47:09.578Z,103158.66
2023-02-08T07:49:37.536Z,103158.78
2023-02-08T07:52:08.883Z,103159.78
2023-02-08T07:54:36.721Z,103165.09
2023-02-08T07:57:04.661Z,103167.75
2023-02-08T07:59:32.578Z,103173.84
2023-02-08T08:02:01.307Z,103172.22
2023-02-08T08:04:29.194Z,103162.78
2023-02-08T08:06:56.834Z,103175.78
2023-02-08T08:09:25.079Z,103176.66
2023-02-08T08:11:52.745Z,103177.53
2023-02-08T08:14:20.907Z,103170.63
2023-02-08T08:16:49.251Z,103175.84
2023-02-08T08:19:17.764Z,103176.69
2023-02-08T08:21:45.946Z,103171.50
2023-02-08T08:24:13.732Z,103174.09
2023-02-08T08:26:43.062Z,103165.41
2023-02-08T08:29:10.726Z,103173.16
2023-02-08T08:31:38.861Z,103167.06
2023-02-08T08:34:06.579Z,103176.56
2023-02-08T08:36:34.679Z,103178.34
2023-02-08T08:39:03.241Z,103174.00
2023-02-08T08:41:31.515Z,103173.13
2023-02-08T08:43:59.493Z,103166.19
2023-02-08T08:46:27.174Z,103169.66
2023-02-08T08:48:55.315Z,103164.44
2023-02-08T08:51:23.919Z,103173.91
2023-02-08T08:53:52.046Z,103176.34
2023-02-08T08:56:19.687Z,103173.91
2023-02-08T08:58:47.259Z,103173.03
2023-02-08T09:01:15.950Z,103162.69
2023-02-08T09:03:43.521Z,103173.88
2023-02-08T09:06:12.290Z,103170.16
2023-02-08T09:08:40.564Z,103172.69
2023-02-08T09:11:11.451Z,103170.94
2023-02-08T09:13:39.707Z,103165.00
2023-02-08T09:16:09.552Z,103169.16
2023-02-08T09:18:38.093Z,103163.22
2023-02-08T09:21:11.994Z,103160.56
2023-02-08T09:23:40.122Z,103175.13
2023-02-08T09:26:11.770Z,103171.53
2023-02-08T09:28:42.679Z,103168.03
2023-02-08T09:31:13.318Z,103163.56
2023-02-08T09:33:41.758Z,103170.78
2023-02-08T09:36:09.986Z,103165.44
2023-02-08T09:38:39.181Z,103171.13
2023-02-08T09:41:16.805Z,103164.91
2023-02-08T09:43:51.792Z,103172.84
2023-02-08T09:46:26.792Z,103174.00
2023-02-08T09:48:58.050Z,103169.28
2023-02-08T09:51:39.717Z,103190.00
2023-02-08T09:54:15.937Z,103184.16
2023-02-08T09:56:44.964Z,103188.75
2023-02-08T09:59:17.341Z,103189.38
2023-02-08T10:01:46.199Z,103192.94
2023-02-08T10:04:36.773Z,103198.50
2023-02-08T10:07:04.897Z,103198.63
2023-02-08T10:09:32.769Z,103196.19
2023-02-08T10:12:15.019Z,103198.41
2023-02-08T10:15:06.511Z,103205.66
2023-02-08T10:18:02.650Z,103199.72
2023-02-08T10:21:01.561Z,103199.19
2023-02-08T10:23:35.079Z,103199.78
2023-02-08T10:26:22.041Z,103211.75
2023-02-08T10:29:20.841Z,103208.06
2023-02-08T10:32:12.999Z,103216.72
2023-02-08T10:34:52.614Z,103214.97
2023-02-08T10:37:25.105Z,103216.31
2023-02-08T10:39:53.213Z,103211.63
2023-02-08T10:42:24.839Z,103201.28
2023-02-08T10:45:23.904Z,103209.09
2023-02-08T10:47:55.907Z,103203.22
2023-02-08T10:50:23.519Z,103202.72
2023-02-08T10:52:51.679Z,103203.78
2023-02-08T10:55:21.451Z,103205.66
2023-02-08T10:57:54.135Z,103196.25
2023-02-08T11:00:27.013Z,103199.59
2023-02-08T11:02:57.633Z,103197.75
2023-02-08T11:05:38.905Z,103184.88
2023-02-08T11:08:09.524Z,103187.47
2023-02-08T11:10:39.326Z,103181.50
2023-02-08T11:13:18.293Z,103178.84
2023-02-08T11:16:05.256Z,103178.66
2023-02-08T11:18:36.067Z,103183.09
2023-02-08T11:21:21.158Z,103183.13
2023-02-08T11:23:55.107Z,103185.66
2023-02-08T11:26:36.464Z,103172.41
2023-02-08T11:29:26.304Z,103169.56
2023-02-08T11:32:17.936Z,103168.81
2023-02-08T11:34:46.977Z,103167.78
2023-02-08T11:37:28.541Z,103165.31
2023-02-08T11:40:00.033Z,103156.91
2023-02-08T11:42:27.670Z,103164.47
2023-02-08T11:44:58.657Z,103158.66
2023-02-08T11:47:31.239Z,103146.00
2023-02-08T11:50:05.825Z,103143.69
2023-02-08T11:52:38.368Z,103146.41
2023-02-08T11:55:26.253Z,103144.38
2023-02-08T11:57:58.865Z,103134.19
2023-02-08T12:00:29.639Z,103134.00
2023-02-08T12:03:05.537Z,103137.88
2023-02-08T12:05:43.798Z,103132.19
2023-02-08T12:08:27.058Z,103125.94
2023-02-08T12:11:16.145Z,103111.84
2023-02-08T12:14:10.484Z,103116.22
2023-02-08T12:16:47.586Z,103115.63
2023-02-08T12:19:20.977Z,103112.69
2023-02-08T12:21:59.758Z,103111.03
2023-02-08T12:24:55.267Z,103114.19
2023-02-08T12:27:45.971Z,103107.69
2023-02-08T12:30:34.791Z,103105.63
2023-02-08T12:33:20.702Z,103106.78
2023-02-08T12:36:07.595Z,103099.72
2023-02-08T12:39:17.878Z,103104.50
2023-02-08T12:42:14.802Z,103094.44
2023-02-08T12:44:45.579Z,103090.19
2023-02-08T12:47:26.132Z,103082.28
2023-02-08T12:50:27.906Z,103084.34
2023-02-08T12:53:04.422Z,103083.53
2023-02-08T12:55:42.088Z,103084.00
2023-02-08T12:58:22.009Z,103081.78
2023-02-08T13:00:52.721Z,103077.44
2023-02-08T13:03:31.972Z,103087.56
2023-02-08T13:06:04.607Z,103080.41
2023-02-08T13:08:56.927Z,103069.38
2023-02-08T13:11:34.786Z,103069.06
2023-02-08T13:14:07.733Z,103062.59
2023-02-08T13:16:50.074Z,103079.69
2023-02-08T13:19:54.389Z,103076.63
2023-02-08T13:22:27.118Z,103066.91
2023-02-08T13:25:11.660Z,103078.25
2023-02-08T13:27:39.839Z,103073.13
2023-02-08T13:30:17.018Z,103075.34
2023-02-08T13:32:47.124Z,103065.72
2023-02-08T13:35:24.042Z,103078.41
2023-02-08T13:38:01.346Z,103077.97
2023-02-08T13:40:34.181Z,103069.25
2023-02-08T13:43:10.313Z,103073.72
2023-02-08T13:45:43.491Z,103074.00
2023-02-08T13:48:15.024Z,103075.53
2023-02-08T13:51:28.698Z,103074.50
2023-02-08T13:53:57.648Z,103059.81
2023-02-08T13:56:41.297Z,103068.94
2023-02-08T13:59:25.612Z,103062.59
2023-02-08T14:02:12.157Z,103073.47
2023-02-08T14:04:51.664Z,103072.78
2023-02-08T14:07:43.611Z,103063.59
2023-02-08T14:10:37.640Z,103065.81
2023-02-08T14:13:31.559Z,103064.91
2023-02-08T14:16:26.850Z,103063.22
2023-02-08T14:18:58.392Z,103049.78
2023-02-08T14:21:34.287Z,103059.91
2023-02-08T14:24:27.374Z,103060.03
2023-02-08T14:27:47.680Z,103047.63
2023-02-08T14:30:18.916Z,103057.00
2023-02-08T14:32:55.002Z,103050.78
2023-02-08T14:35:26.747Z,103059.75
2023-02-08T14:38:20.228Z,103056.38
2023-02-08T14:40:51.966Z,103055.00
2023-02-08T14:43:20.240Z,103060.22
2023-02-08T14:45:53.482Z,103053.06
2023-02-08T14:48:27.323Z,103059.22
2023-02-08T14:51:04.344Z,103046.91
2023-02-08T14:53:35.698Z,103056.78
2023-02-08T14:56:14.726Z,103056.06
2023-02-08T14:58:45.823Z,103053.63
2023-02-08T15:01:25.498Z,103059.50
2023-02-08T15:04:01.699Z,103065.56
2023-02-08T15:06:39.200Z,103069.84
2023-02-08T15:09:16.809Z,103068.81
2023-02-08T15:11:50.635Z,103075.09
2023-02-08T15:14:20.914Z,103070.72
2023-02-08T15:16:49.446Z,103079.28
2023-02-08T15:19:27.488Z,103080.13
2023-02-08T15:21:56.071Z,103083.09
2023-02-08T15:24:29.702Z,103092.81
2023-02-08T15:26:58.286Z,103084.00
2023-02-08T15:29:42.938Z,103086.19
2023-02-08T15:32:16.726Z,103088.13
2023-02-08T15:34:54.058Z,103078.94
2023-02-08T15:37:22.358Z,103074.41
2023-02-08T15:40:00.967Z,103082.50
2023-02-08T15:42:33.130Z,103081.69
2023-02-08T15:45:02.871Z,103083.69
2023-02-08T15:47:34.273Z,103081.13
2023-02-08T15:50:06.833Z,103088.41
2023-02-08T15:52:37.347Z,103093.59
2023-02-08T15:55:08.947Z,103073.63
2023-02-08T15:57:46.956Z,103086.72
2023-02-08T16:00:21.449Z,103082.31
2023-02-08T16:02:56.341Z,103078.66
2023-02-08T16:05:27.118Z,103076.50
2023-02-08T16:07:55.518Z,103076.44
2023-02-08T16:10:23.609Z,103082.59
2023-02-08T16:12:55.067Z,103084.25
2023-02-08T16:15:45.173Z,103094.88
2023-02-08T16:18:33.115Z,103095.91
2023-02-08T16:21:03.184Z,103098.47
2023-02-08T16:23:39.198Z,103102.84
2023-02-08T16:26:21.608Z,103106.34
2023-02-08T16:29:19.988Z,103103.00
2023-02-08T16:32:14.835Z,103100.38
2023-02-08T16:34:43.094Z,103105.56
2023-02-08T16:37:31.011Z,103103.81
2023-02-08T16:40:00.311Z,103109.94
2023-02-08T16:42:35.982Z,103114.25
2023-02-08T16:45:13.052Z,103120.31
2023-02-08T16:47:43.901Z,103116.06
2023-02-08T16:50:17.694Z,103116.97
2023-02-08T16:52:49.706Z,103123.84
2023-02-08T16:55:21.743Z,103119.53
2023-02-08T16:57:52.363Z,103123.88
2023-02-08T17:00:29.971Z,103126.47
2023-02-08T17:02:58.612Z,103132.53
2023-02-08T17:05:29.764Z,103130.84
2023-02-08T17:07:59.443Z,103130.78
2023-02-08T17:10:32.510Z,103135.16
2023-02-08T17:13:20.616Z,103138.63
2023-02-08T17:15:51.180Z,103139.50
2023-02-08T17:18:21.301Z,103146.41
2023-02-08T17:20:49.056Z,103147.28
2023-02-08T17:23:16.855Z,103156.81
2023-02-08T17:25:45.453Z,103162.00
2023-02-08T17:28:19.500Z,103165.44
2023-02-08T17:31:13.040Z,103168.00
2023-02-08T17:33:41.237Z,103168.00
2023-02-08T17:36:11.343Z,103175.78
2023-02-08T17:38:40.222Z,103180.97
2023-02-08T17:41:15.475Z,103179.19
2023-02-08T17:43:43.651Z,103179.16
2023-02-08T17:46:20.823Z,103179.22
2023-02-08T17:48:49.637Z,103185.25
2023-02-08T17:51:23.998Z,103177.47
2023-02-08T17:53:54.438Z,103185.16
2023-02-08T17:56:25.052Z,103192.09
2023-02-08T17:58:55.488Z,103194.63
2023-02-08T18:01:26.723Z,103192.06
2023-02-08T18:03:55.215Z,103196.25
2023-02-08T18:06:25.046Z,103198.00
2023-02-08T18:08:54.727Z,103197.09
2023-02-08T18:11:24.242Z,103199.69
2023-02-08T18:13:54.410Z,103200.53
2023-02-08T18:16:27.308Z,103206.56
2023-02-08T18:18:57.452Z,103211.78
2023-02-08T18:21:26.167Z,103210.06
2023-02-08T18:23:55.611Z,103214.41
2023-02-08T18:26:25.090Z,103220.34
2023-02-08T18:28:53.103Z,103216.09
2023-02-08T18:31:21.225Z,103211.81
2023-02-08T18:33:50.220Z,103220.41
2023-02-08T18:36:20.580Z,103223.88
2023-02-08T18:38:51.199Z,103225.63
2023-02-08T18:41:25.311Z,103216.13
2023-02-08T18:43:55.417Z,103223.06
2023-02-08T18:46:25.599Z,103219.66
2023-02-08T18:48:54.297Z,103229.03
2023-02-08T18:51:23.779Z,103223.00
2023-02-08T18:53:54.377Z,103217.81
2023-02-08T18:56:26.183Z,103223.00
2023-02-08T18:58:55.784Z,103216.09
2023-02-08T19:01:25.159Z,103224.59
2023-02-08T19:03:53.304Z,103224.59
2023-02-08T19:06:24.826Z,103231.47
2023-02-08T19:08:56.100Z,103224.69
2023-02-08T19:11:31.680Z,103223.78
2023-02-08T19:14:04.548Z,103228.97
2023-02-08T19:16:35.824Z,103223.75
2023-02-08T19:19:07.174Z,103238.38
2023-02-08T19:21:35.847Z,103241.78
2023-02-08T19:24:04.910Z,103244.44
2023-02-08T19:26:39.707Z,103231.50
2023-02-08T19:29:11.032Z,103237.47
2023-02-08T19:31:40.270Z,103247.84
2023-02-08T19:34:08.912Z,103246.19
2023-02-08T19:36:46.642Z,103257.38
2023-02-08T19:39:17.931Z,103256.38
2023-02-08T19:41:47.313Z,103257.34
2023-02-08T19:44:18.446Z,103253.88
2023-02-08T19:46:52.078Z,103257.31
2023-02-08T19:49:20.159Z,103262.44
2023-02-08T19:51:48.709Z,103269.38
2023-02-08T19:54:19.371Z,103261.56
2023-02-08T19:56:47.378Z,103255.63
2023-02-08T19:59:21.599Z,103250.44
2023-02-08T20:01:53.926Z,103253.09
2023-02-08T20:04:22.983Z,103258.25
2023-02-08T20:06:54.082Z,103253.00
2023-02-08T20:09:22.380Z,103260.81
2023-02-08T20:11:57.132Z,103276.31
2023-02-08T20:14:29.222Z,103272.88
2023-02-08T20:16:58.447Z,103272.69
2023-02-08T20:19:26.874Z,103267.56
2023-02-08T20:21:54.884Z,103278.81
2023-02-08T20:24:23.190Z,103271.75
2023-02-08T20:26:53.188Z,103276.09
2023-02-08T20:29:23.432Z,103275.31
2023-02-08T20:31:58.135Z,103269.97
2023-02-08T20:34:26.447Z,103281.94
2023-02-08T20:37:06.870Z,103286.25
2023-02-08T20:39:37.060Z,103280.34
2023-02-08T20:42:05.011Z,103284.69
2023-02-08T20:44:32.712Z,103285.50
2023-02-08T20:47:01.317Z,103289.00
2023-02-08T20:49:32.181Z,103288.03
2023-02-08T20:52:00.429Z,103294.06
2023-02-08T20:54:29.197Z,103288.91
2023-02-08T20:56:57.356Z,103300.91
2023-02-08T20:59:25.603Z,103304.28
2023-02-08T21:01:54.161Z,103308.63
2023-02-08T21:04:23.682Z,103306.91
2023-02-08T21:06:52.502Z,103306.13
2023-02-08T21:09:20.578Z,103303.34
2023-02-08T21:11:49.893Z,103315.47
2023-02-08T21:14:21.025Z,103312.81
2023-02-08T21:16:51.902Z,103318.06
2023-02-08T21:19:23.900Z,103313.75
2023-02-08T21:21:54.135Z,103314.59
2023-02-08T21:24:23.950Z,103316.41
2023-02-08T21:26:53.249Z,103319.00
2023-02-08T21:29:21.735Z,103314.69
2023-02-08T21:31:53.624Z,103316.28
2023-02-08T21:34:21.600Z,103316.34
2023-02-08T21:36:49.819Z,103315.56
2023-02-08T21:39:17.717Z,103315.47
2023-02-08T21:41:46.358Z,103314.59
2023-02-08T21:44:14.580Z,103310.34
2023-02-08T21:46:42.398Z,103312.88
2023-02-08T21:49:29.574Z,103314.69
2023-02-08T21:52:17.424Z,103315.53
2023-02-08T21:54:45.916Z,103323.19
2023-02-08T21:57:18.984Z,103318.91
2023-02-08T21:59:49.041Z,103324.03
2023-02-08T22:02:24.651Z,103324.22
2023-02-08T22:04:58.594Z,103325.00
2023-02-08T22:07:28.119Z,103318.03
2023-02-08T22:09:56.509Z,103332.72
2023-02-08T22:12:24.643Z,103336.19
2023-02-08T22:14:52.250Z,103327.47
2023-02-08T22:17:19.970Z,103330.94
2023-02-08T22:19:48.744Z,103324.78
2023-02-08T22:22:16.770Z,103317.69
2023-02-08T22:24:44.488Z,103324.75
2023-02-08T22:27:12.813Z,103316.00
2023-02-08T22:29:40.901Z,103319.44
2023-02-08T22:32:10.054Z,103312.56
2023-02-08T22:34:38.881Z,103323.00
2023-02-08T22:37:07.470Z,103309.94
2023-02-08T22:39:35.864Z,103314.44
2023-02-08T22:42:08.692Z,103316.03
2023-02-08T22:44:38.185Z,103312.81
2023-02-08T22:47:07.852Z,103315.38
2023-02-08T22:49:37.252Z,103318.81
2023-02-08T22:52:06.431Z,103320.44
2023-02-08T22:54:34.198Z,103312.69
2023-02-08T22:57:01.957Z,103310.22
2023-02-08T22:59:30.782Z,103311.03
2023-02-08T23:01:59.473Z,103303.28
2023-02-08T23:04:29.944Z,103298.09
2023-02-08T23:07:01.413Z,103299.75
2023-02-08T23:09:29.192Z,103305.81
2023-02-08T23:11:57.148Z,103302.41
2023-02-08T23:14:25.350Z,103302.28
2023-02-08T23:16:53.450Z,103295.38
2023-02-08T23:19:22.030Z,103305.78
2023-02-08T23:21:49.794Z,103309.34
2023-02-08T23:24:17.852Z,103304.91
2023-02-08T23:26:45.453Z,103294.41
2023-02-08T23:29:13.756Z,103302.25
2023-02-08T23:31:42.053Z,103290.00
2023-02-08T23:34:11.486Z,103302.97
2023-02-08T23:36:39.974Z,103296.13
2023-02-08T23:39:08.587Z,103287.47
2023-02-08T23:41:36.503Z,103294.47
2023-02-08T23:44:04.944Z,103289.28
2023-02-08T23:46:33.158Z,103292.75
2023-02-08T23:49:01.143Z,103289.31
2023-02-08T23:51:29.906Z,103285.91
2023-02-08T23:53:57.895Z,103285.84
2023-02-08T23:56:27.892Z,103284.25
2023-02-08T23:58:57.808Z,103278.97
